createdAt,value
2022-09-30T00:01:26.653Z,99084.66
2022-09-30T00:03:54.604Z,99091.88
2022-09-30T00:06:22.303Z,99091.97
2022-09-30T00:08:49.824Z,99087.66
2022-09-30T00:11:17.874Z,99089.59
2022-09-30T00:13:45.424Z,99093.19
2022-09-30T00:16:13.612Z,99094.16
2022-09-30T00:18:41.417Z,99093.19
2022-09-30T00:21:08.995Z,99093.81
2022-09-30T00:23:38.039Z,99099.91
2022-09-30T00:26:05.713Z,99099.09
2022-09-30T00:28:33.666Z,99099.09
2022-09-30T00:31:01.723Z,99099.19
2022-09-30T00:33:29.410Z,99103.75
2022-09-30T00:35:56.973Z,99110.22
2022-09-30T00:38:24.508Z,99109.72
2022-09-30T00:40:52.862Z,99112.69
2022-09-30T00:43:20.750Z,99117.38
2022-09-30T00:45:48.612Z,99114.13
2022-09-30T00:48:16.227Z,99112.56
2022-09-30T00:50:45.501Z,99107.50
2022-09-30T00:53:13.482Z,99108.56
2022-09-30T00:55:41.107Z,99110.47
2022-09-30T00:58:09.135Z,99110.81
2022-09-30T01:00:36.786Z,99112.84
2022-09-30T01:03:04.426Z,99121.84
2022-09-30T01:05:32.371Z,99117.72
2022-09-30T01:08:00.941Z,99118.88
2022-09-30T01:10:28.516Z,99108.75
2022-09-30T01:12:56.090Z,99114.38
2022-09-30T01:15:23.669Z,99109.34
2022-09-30T01:17:51.651Z,99115.69
2022-09-30T01:20:19.227Z,99113.28
2022-09-30T01:22:46.790Z,99109.78
2022-09-30T01:25:14.404Z,99115.16
2022-09-30T01:27:41.943Z,99114.22
2022-09-30T01:30:10.189Z,99110.09
2022-09-30T01:32:37.888Z,99111.06
2022-09-30T01:35:05.465Z,99119.19
2022-09-30T01:37:33.030Z,99117.63
2022-09-30T01:40:00.650Z,99121.19
2022-09-30T01:42:28.588Z,99115.94
2022-09-30T01:44:56.157Z,99114.03
2022-09-30T01:47:23.734Z,99118.47
2022-09-30T01:49:51.266Z,99121.00
2022-09-30T01:52:19.104Z,99130.59
2022-09-30T01:54:46.919Z,99124.47
2022-09-30T01:57:14.667Z,99124.47
2022-09-30T01:59:42.256Z,99133.25
2022-09-30T02:02:09.861Z,99131.66
2022-09-30T02:04:37.425Z,99129.25
2022-09-30T02:07:05.378Z,99132.00
2022-09-30T02:09:33.039Z,99126.94
2022-09-30T02:12:00.607Z,99136.66
2022-09-30T02:14:28.136Z,99129.69
2022-09-30T02:16:55.706Z,99141.19
2022-09-30T02:19:23.654Z,99131.59
2022-09-30T02:21:51.249Z,99134.34
2022-09-30T02:24:18.795Z,99129.28
2022-09-30T02:26:46.384Z,99125.06
2022-09-30T02:29:13.869Z,99131.41
2022-09-30T02:31:41.815Z,99131.63
2022-09-30T02:34:09.563Z,99132.69
2022-09-30T02:36:37.089Z,99131.19
2022-09-30T02:39:04.667Z,99139.34
2022-09-30T02:41:32.183Z,99134.16
2022-09-30T02:43:59.968Z,99129.94
2022-09-30T02:46:27.618Z,99123.00
2022-09-30T02:48:55.185Z,99130.06
2022-09-30T02:51:22.713Z,99127.44
2022-09-30T02:53:50.286Z,99121.22
2022-09-30T02:56:18.673Z,99129.75
2022-09-30T02:58:46.216Z,99131.44
2022-09-30T03:01:13.887Z,99135.75
2022-09-30T03:03:41.442Z,99134.16
2022-09-30T03:06:08.953Z,99140.50
2022-09-30T03:08:36.873Z,99142.31
2022-09-30T03:11:04.403Z,99147.69
2022-09-30T03:13:31.927Z,99138.19
2022-09-30T03:15:59.581Z,99145.38
2022-09-30T03:18:27.467Z,99151.69
2022-09-30T03:20:55.474Z,99155.38
2022-09-30T03:23:23.214Z,99154.66
2022-09-30T03:25:50.743Z,99159.06
2022-09-30T03:28:18.286Z,99163.53
2022-09-30T03:30:45.855Z,99166.06
2022-09-30T03:33:13.870Z,99167.13
2022-09-30T03:35:41.576Z,99161.94
2022-09-30T03:38:09.166Z,99164.56
2022-09-30T03:40:36.701Z,99169.13
2022-09-30T03:43:04.247Z,99178.91
2022-09-30T03:45:32.179Z,99176.50
2022-09-30T03:48:00.018Z,99165.41
2022-09-30T03:50:27.551Z,99172.59
2022-09-30T03:52:55.143Z,99171.00
2022-09-30T03:55:22.659Z,99165.84
2022-09-30T03:57:51.719Z,99169.41
2022-09-30T04:00:20.855Z,99173.88
2022-09-30T04:02:48.391Z,99181.88
2022-09-30T04:05:15.924Z,99176.81
2022-09-30T04:07:43.493Z,99183.13
2022-09-30T04:10:11.378Z,99184.19
2022-09-30T04:12:38.954Z,99198.31
2022-09-30T04:15:06.512Z,99190.50
2022-09-30T04:17:34.006Z,99192.41
2022-09-30T04:20:01.505Z,99196.81
2022-09-30T04:22:29.709Z,99198.72
2022-09-30T04:24:57.583Z,99204.84
2022-09-30T04:27:25.065Z,99205.81
2022-09-30T04:29:52.626Z,99212.94
2022-09-30T04:32:20.119Z,99221.72
2022-09-30T04:34:47.644Z,99225.28
2022-09-30T04:37:15.819Z,99236.66
2022-09-30T04:39:44.331Z,99227.94
2022-09-30T04:42:12.147Z,99236.78
2022-09-30T04:44:39.739Z,99236.88
2022-09-30T04:47:07.672Z,99246.56
2022-09-30T04:49:35.267Z,99240.56
2022-09-30T04:52:02.827Z,99241.59
2022-09-30T04:54:30.342Z,99241.72
2022-09-30T04:56:57.919Z,99239.28
2022-09-30T04:59:25.855Z,99247.47
2022-09-30T05:01:53.598Z,99250.31
2022-09-30T05:04:21.941Z,99259.47
2022-09-30T05:06:50.185Z,99257.03
2022-09-30T05:09:17.742Z,99261.56
2022-09-30T05:11:45.737Z,99258.06
2022-09-30T05:14:13.314Z,99262.50
2022-09-30T05:16:40.953Z,99259.75
2022-09-30T05:19:08.590Z,99266.63
2022-09-30T05:21:36.165Z,99261.25
2022-09-30T05:24:04.139Z,99263.97
2022-09-30T05:26:33.063Z,99256.94
2022-09-30T05:29:00.965Z,99254.31
2022-09-30T05:31:28.612Z,99258.53
2022-09-30T05:33:58.227Z,99255.78
2022-09-30T05:36:26.042Z,99257.69
2022-09-30T05:38:53.662Z,99256.00
2022-09-30T05:41:21.404Z,99265.66
2022-09-30T05:43:49.018Z,99270.13
2022-09-30T05:46:16.676Z,99275.28
2022-09-30T05:48:44.653Z,99272.44
2022-09-30T05:51:13.567Z,99272.44
2022-09-30T05:53:41.309Z,99278.44
2022-09-30T05:56:08.876Z,99287.09
2022-09-30T05:58:36.503Z,99285.03
2022-09-30T06:01:12.068Z,99287.34
2022-09-30T06:03:40.977Z,99278.19
2022-09-30T06:06:08.602Z,99289.28
2022-09-30T06:08:36.163Z,99283.81
2022-09-30T06:11:03.878Z,99294.91
2022-09-30T06:13:31.929Z,99292.81
2022-09-30T06:15:59.986Z,99297.47
2022-09-30T06:18:27.680Z,99305.63
2022-09-30T06:20:55.708Z,99312.28
2022-09-30T06:23:23.422Z,99315.47
2022-09-30T06:25:51.417Z,99318.63
2022-09-30T06:28:19.370Z,99320.13
2022-09-30T06:30:46.943Z,99325.19
2022-09-30T06:33:14.661Z,99325.72
2022-09-30T06:35:42.891Z,99322.69
2022-09-30T06:38:10.862Z,99325.63
2022-09-30T06:40:38.769Z,99324.28
2022-09-30T06:43:06.811Z,99312.34
2022-09-30T06:45:35.875Z,99319.94
2022-09-30T06:48:05.139Z,99325.22
2022-09-30T06:50:33.274Z,99327.22
2022-09-30T06:53:01.210Z,99328.25
2022-09-30T06:55:29.241Z,99329.56
2022-09-30T06:57:56.919Z,99330.09
2022-09-30T07:00:24.557Z,99332.31
2022-09-30T07:02:52.227Z,99336.19
2022-09-30T07:05:20.223Z,99340.09
2022-09-30T07:07:49.247Z,99346.41
2022-09-30T07:10:16.984Z,99327.25
2022-09-30T07:12:44.630Z,99332.47
2022-09-30T07:15:13.849Z,99343.97
2022-09-30T07:17:43.559Z,99341.31
2022-09-30T07:20:11.193Z,99341.00
2022-09-30T07:22:38.784Z,99337.94
2022-09-30T07:25:07.256Z,99335.84
2022-09-30T07:27:35.818Z,99334.69
2022-09-30T07:30:09.463Z,99334.25
2022-09-30T07:32:39.270Z,99330.19
2022-09-30T07:35:07.476Z,99338.63
2022-09-30T07:37:36.574Z,99333.81
2022-09-30T07:40:04.714Z,99334.88
2022-09-30T07:42:32.295Z,99334.28
2022-09-30T07:45:00.669Z,99336.47
2022-09-30T07:47:28.350Z,99339.44
2022-09-30T07:49:56.347Z,99337.22
2022-09-30T07:52:24.220Z,99336.66
2022-09-30T07:54:51.910Z,99337.34
2022-09-30T07:57:19.548Z,99338.81
2022-09-30T07:59:47.444Z,99347.91
2022-09-30T08:02:15.877Z,99342.13
2022-09-30T08:04:44.933Z,99339.84
2022-09-30T08:07:12.965Z,99335.75
2022-09-30T08:09:40.765Z,99336.00
2022-09-30T08:12:08.638Z,99342.50
2022-09-30T08:14:36.640Z,99334.84
2022-09-30T08:17:04.776Z,99327.03
2022-09-30T08:19:33.850Z,99335.19
2022-09-30T08:24:30.767Z,99332.28
2022-09-30T08:26:58.841Z,99337.59
2022-09-30T08:29:53.380Z,99338.44
2022-09-30T08:32:14.887Z,99336.75
2022-09-30T08:34:42.994Z,99341.00
2022-09-30T08:37:12.132Z,99334.06
2022-09-30T08:39:40.409Z,99336.38
2022-09-30T08:42:19.160Z,99335.47
2022-09-30T08:44:56.520Z,99338.09
2022-09-30T08:47:25.767Z,99340.00
2022-09-30T08:49:54.032Z,99329.41
2022-09-30T08:52:30.507Z,99332.06
2022-09-30T08:55:05.521Z,99332.66
2022-09-30T08:57:34.375Z,99330.88
2022-09-30T09:00:05.771Z,99331.13
2022-09-30T09:02:34.224Z,99336.69
2022-09-30T09:05:02.468Z,99343.78
2022-09-30T09:07:30.453Z,99337.34
2022-09-30T09:34:44.843Z,99325.00
2022-09-30T09:37:12.530Z,99324.03
2022-09-30T09:39:40.077Z,99326.75
2022-09-30T09:42:08.254Z,99332.78
2022-09-30T09:44:35.990Z,99330.47
2022-09-30T09:47:05.841Z,99327.78
2022-09-30T09:49:33.702Z,99323.25
2022-09-30T09:52:03.397Z,99311.94
2022-09-30T09:54:31.503Z,99315.91
2022-09-30T09:56:59.316Z,99318.06
2022-09-30T09:59:27.569Z,99322.78
2022-09-30T10:01:55.919Z,99320.78
2022-09-30T10:04:26.109Z,99318.72
2022-09-30T10:06:54.318Z,99300.38
2022-09-30T10:09:22.320Z,99305.09
2022-09-30T10:11:50.769Z,99302.59
2022-09-30T10:14:18.591Z,99312.13
2022-09-30T10:16:46.610Z,99316.03
2022-09-30T10:19:14.546Z,99315.84
2022-09-30T10:21:42.192Z,99315.53
2022-09-30T10:24:10.894Z,99313.56
2022-09-30T10:26:38.684Z,99322.69
2022-09-30T10:29:06.493Z,99314.72
2022-09-30T10:31:34.369Z,99323.53
2022-09-30T10:34:02.244Z,99326.31
2022-09-30T10:36:30.596Z,99334.16
2022-09-30T10:39:01.215Z,99333.00
2022-09-30T10:41:32.088Z,99333.00
2022-09-30T10:43:59.884Z,99335.06
2022-09-30T10:46:27.989Z,99336.13
2022-09-30T10:48:57.174Z,99329.78
2022-09-30T10:51:25.381Z,99327.78
2022-09-30T10:53:53.414Z,99329.16
2022-09-30T10:56:21.292Z,99333.31
2022-09-30T10:58:49.026Z,99334.13
2022-09-30T11:01:18.540Z,99319.91
2022-09-30T11:03:46.681Z,99324.72
2022-09-30T11:06:15.285Z,99330.03
2022-09-30T11:08:43.207Z,99324.34
2022-09-30T11:11:11.432Z,99322.16
2022-09-30T11:13:39.467Z,99316.50
2022-09-30T11:16:07.193Z,99317.19
2022-09-30T11:18:35.143Z,99320.09
2022-09-30T11:21:03.556Z,99321.25
2022-09-30T11:23:31.639Z,99315.50
2022-09-30T11:26:00.102Z,99316.53
2022-09-30T11:28:27.965Z,99316.28
2022-09-30T11:30:55.871Z,99326.34
2022-09-30T11:33:23.709Z,99330.44
2022-09-30T11:35:51.437Z,99326.41
2022-09-30T11:38:19.913Z,99321.31
2022-09-30T11:40:47.921Z,99322.06
2022-09-30T11:43:15.734Z,99318.44
2022-09-30T11:45:44.068Z,99310.34
2022-09-30T11:48:11.924Z,99309.34
2022-09-30T11:50:40.040Z,99311.94
2022-09-30T11:53:08.098Z,99309.56
2022-09-30T11:55:35.891Z,99322.91
2022-09-30T11:58:22.231Z,99327.69
2022-09-30T12:00:52.417Z,99327.13
2022-09-30T12:03:20.266Z,99336.69
2022-09-30T12:05:48.201Z,99340.22
2022-09-30T12:08:16.015Z,99338.44
2022-09-30T12:10:44.435Z,99338.13
2022-09-30T12:13:13.279Z,99341.28
2022-09-30T12:15:41.096Z,99340.00
2022-09-30T12:18:09.822Z,99345.34
2022-09-30T12:20:37.568Z,99344.78
2022-09-30T12:23:05.367Z,99344.56
2022-09-30T12:25:34.068Z,99342.09
2022-09-30T12:28:22.239Z,99328.41
2022-09-30T12:30:49.253Z,99322.72
2022-09-30T12:33:18.147Z,99319.72
2022-09-30T12:35:46.658Z,99316.31
2022-09-30T12:38:14.382Z,99312.78
2022-09-30T12:40:42.352Z,99319.59
2022-09-30T12:43:10.281Z,99316.25
2022-09-30T12:45:38.045Z,99302.47
2022-09-30T12:48:08.383Z,99301.53
2022-09-30T12:50:36.500Z,99291.09
2022-09-30T12:53:04.385Z,99295.13
2022-09-30T12:55:32.656Z,99296.63
2022-09-30T12:58:01.886Z,99289.16
2022-09-30T13:00:31.372Z,99283.78
2022-09-30T13:02:59.368Z,99280.25
2022-09-30T13:05:27.143Z,99286.22
2022-09-30T13:07:55.403Z,99277.84
2022-09-30T13:10:23.817Z,99286.13
2022-09-30T13:12:54.719Z,99277.41
2022-09-30T13:15:22.683Z,99271.03
2022-09-30T13:17:50.487Z,99269.25
2022-09-30T13:20:18.667Z,99275.31
2022-09-30T13:22:46.497Z,99273.25
2022-09-30T13:25:14.981Z,99261.69
2022-09-30T13:27:42.824Z,99266.06
2022-09-30T13:30:10.659Z,99263.13
2022-09-30T13:32:38.600Z,99261.31
2022-09-30T13:35:06.515Z,99251.94
2022-09-30T13:37:35.144Z,99242.97
2022-09-30T13:40:02.959Z,99247.28
2022-09-30T13:42:31.618Z,99248.72
2022-09-30T13:44:59.395Z,99254.28
2022-09-30T13:47:27.360Z,99255.47
2022-09-30T13:49:57.122Z,99258.09
2022-09-30T13:52:25.217Z,99248.59
2022-09-30T13:54:53.479Z,99249.72
2022-09-30T13:57:21.372Z,99246.00
2022-09-30T13:59:49.067Z,99251.03
2022-09-30T14:02:20.203Z,99248.25
2022-09-30T14:04:50.098Z,99252.91
2022-09-30T14:07:18.290Z,99257.13
2022-09-30T14:09:47.419Z,99257.03
2022-09-30T14:12:15.303Z,99254.97
2022-09-30T14:14:46.838Z,99252.78
2022-09-30T14:17:15.424Z,99247.75
2022-09-30T14:19:43.666Z,99249.25
2022-09-30T14:22:11.806Z,99252.13
2022-09-30T14:24:40.478Z,99242.81
2022-09-30T14:27:08.836Z,99239.75
2022-09-30T14:29:36.612Z,99233.69
2022-09-30T14:32:04.627Z,99233.19
2022-09-30T14:37:21.193Z,99237.81
2022-09-30T14:39:49.513Z,99232.72
2022-09-30T14:42:17.776Z,99233.59
2022-09-30T14:44:46.043Z,99228.19
2022-09-30T14:47:13.935Z,99222.03
2022-09-30T14:49:42.594Z,99229.13
2022-09-30T14:52:10.503Z,99223.34
2022-09-30T14:54:38.303Z,99219.34
2022-09-30T14:57:06.942Z,99211.09
2022-09-30T14:59:39.998Z,99211.00
2022-09-30T15:02:10.660Z,99211.53
2022-09-30T15:04:38.783Z,99214.38
2022-09-30T15:07:07.460Z,99214.00
2022-09-30T15:09:36.293Z,99211.19
2022-09-30T15:12:04.213Z,99213.91
2022-09-30T15:14:33.779Z,99213.69
2022-09-30T15:17:06.058Z,99206.97
2022-09-30T15:19:34.501Z,99211.28
2022-09-30T15:22:02.647Z,99200.91
2022-09-30T15:24:31.498Z,99201.94
2022-09-30T15:27:00.065Z,99198.81
2022-09-30T15:29:28.244Z,99194.78
2022-09-30T15:31:56.169Z,99194.75
2022-09-30T15:34:24.255Z,99195.34
2022-09-30T15:36:52.184Z,99192.38
2022-09-30T15:39:20.554Z,99190.28
2022-09-30T15:41:48.668Z,99193.09
2022-09-30T15:44:16.421Z,99199.25
2022-09-30T15:46:44.223Z,99204.50
2022-09-30T15:49:12.033Z,99207.88
2022-09-30T15:51:40.457Z,99210.34
2022-09-30T15:54:09.455Z,99217.81
2022-09-30T15:56:37.432Z,99207.66
2022-09-30T15:59:05.348Z,99218.88
2022-09-30T16:01:33.383Z,99217.31
2022-09-30T16:04:02.306Z,99214.00
2022-09-30T16:06:32.659Z,99214.47
2022-09-30T16:09:01.558Z,99222.47
2022-09-30T16:11:29.390Z,99211.28
2022-09-30T16:13:58.329Z,99221.63
2022-09-30T16:16:27.298Z,99222.69
2022-09-30T16:18:55.262Z,99219.16
2022-09-30T16:21:23.083Z,99219.03
2022-09-30T16:23:51.309Z,99220.91
2022-09-30T16:26:19.284Z,99217.41
2022-09-30T16:28:48.376Z,99218.47
2022-09-30T16:31:16.899Z,99219.66
2022-09-30T16:33:44.816Z,99218.69
2022-09-30T16:36:13.680Z,99218.91
2022-09-30T16:38:41.565Z,99225.13
2022-09-30T16:41:09.810Z,99219.94
2022-09-30T16:43:39.183Z,99219.13
2022-09-30T16:46:07.548Z,99219.97
2022-09-30T16:48:36.457Z,99224.50
2022-09-30T16:51:04.163Z,99228.16
2022-09-30T16:53:32.865Z,99226.50
2022-09-30T16:56:01.206Z,99228.66
2022-09-30T16:58:29.044Z,99223.16
2022-09-30T17:00:58.047Z,99231.69
2022-09-30T17:03:25.726Z,99228.13
2022-09-30T17:05:55.291Z,99229.78
2022-09-30T17:08:24.018Z,99235.41
2022-09-30T17:10:51.815Z,99230.38
2022-09-30T17:13:19.617Z,99226.78
2022-09-30T17:15:47.447Z,99232.97
2022-09-30T17:18:16.101Z,99242.47
2022-09-30T17:20:43.976Z,99238.91
2022-09-30T17:23:12.557Z,99237.19
2022-09-30T17:25:41.470Z,99235.50
2022-09-30T17:28:09.343Z,99234.75
2022-09-30T17:30:39.640Z,99236.22
2022-09-30T17:33:07.829Z,99233.16
2022-09-30T17:35:36.606Z,99226.47
2022-09-30T17:38:04.505Z,99223.41
2022-09-30T17:40:50.001Z,99227.44
2022-09-30T17:43:18.077Z,99227.19
2022-09-30T17:45:46.508Z,99231.19
2022-09-30T17:48:14.487Z,99231.50
2022-09-30T17:50:44.508Z,99237.16
2022-09-30T17:53:13.367Z,99232.13
2022-09-30T17:55:41.699Z,99233.28
2022-09-30T17:58:09.587Z,99218.06
2022-09-30T18:00:37.925Z,99226.94
2022-09-30T18:03:05.780Z,99224.25
2022-09-30T18:05:34.067Z,99219.44
2022-09-30T18:08:02.788Z,99216.78
2022-09-30T18:10:30.693Z,99207.06
2022-09-30T18:12:59.905Z,99213.25
2022-09-30T18:15:28.454Z,99207.38
2022-09-30T18:17:56.867Z,99209.69
2022-09-30T18:20:25.654Z,99217.00
2022-09-30T18:22:53.695Z,99218.16
2022-09-30T18:25:21.574Z,99221.81
2022-09-30T18:27:49.445Z,99219.16
2022-09-30T18:30:17.778Z,99216.66
2022-09-30T18:32:45.807Z,99215.13
2022-09-30T18:35:14.405Z,99221.09
2022-09-30T18:37:43.427Z,99224.19
2022-09-30T18:40:11.923Z,99229.16
2022-09-30T18:42:40.095Z,99226.66
2022-09-30T18:45:08.657Z,99226.13
2022-09-30T18:47:36.508Z,99227.25
2022-09-30T18:50:04.351Z,99224.06
2022-09-30T18:52:32.113Z,99236.72
2022-09-30T18:55:00.191Z,99235.56
2022-09-30T18:57:33.655Z,99234.13
2022-09-30T19:00:02.106Z,99235.63
2022-09-30T19:02:30.044Z,99236.16
2022-09-30T19:04:59.958Z,99232.53
2022-09-30T19:07:28.038Z,99234.50
2022-09-30T19:09:56.112Z,99233.81
2022-09-30T19:12:23.893Z,99236.81
2022-09-30T19:14:52.011Z,99240.63
2022-09-30T19:17:20.307Z,99238.69
2022-09-30T19:19:48.681Z,99239.47
2022-09-30T19:22:16.642Z,99235.88
2022-09-30T19:24:44.382Z,99224.28
2022-09-30T19:27:12.492Z,99227.69
2022-09-30T19:29:40.812Z,99222.28
2022-09-30T19:32:10.450Z,99214.56
2022-09-30T19:34:38.282Z,99211.19
2022-09-30T19:37:07.702Z,99213.19
2022-09-30T19:39:45.551Z,99209.84
2022-09-30T19:42:17.859Z,99200.16
2022-09-30T19:44:45.634Z,99201.09
2022-09-30T19:47:13.534Z,99200.28
2022-09-30T19:49:41.324Z,99193.41
2022-09-30T19:52:17.996Z,99197.09
2022-09-30T19:54:49.567Z,99189.94
2022-09-30T19:57:17.347Z,99187.09
2022-09-30T19:59:45.312Z,99187.25
2022-09-30T20:02:13.166Z,99191.75
2022-09-30T20:04:42.472Z,99194.28
2022-09-30T20:07:10.835Z,99197.63
2022-09-30T20:09:38.721Z,99189.59
2022-09-30T20:12:07.991Z,99192.97
2022-09-30T20:14:53.083Z,99189.28
2022-09-30T20:17:21.434Z,99195.19
2022-09-30T20:20:09.645Z,99193.22
2022-09-30T20:22:37.420Z,99198.25
2022-09-30T20:25:05.351Z,99192.59
2022-09-30T20:27:33.672Z,99197.66
2022-09-30T20:30:01.501Z,99193.53
2022-09-30T20:32:30.973Z,99194.72
2022-09-30T20:34:58.925Z,99192.13
2022-09-30T20:37:26.769Z,99194.19
2022-09-30T20:39:56.453Z,99185.88
2022-09-30T20:42:25.936Z,99180.53
2022-09-30T20:44:53.611Z,99192.59
2022-09-30T20:47:21.436Z,99175.56
2022-09-30T20:49:49.228Z,99177.41
2022-09-30T20:52:17.902Z,99170.69
2022-09-30T20:54:45.701Z,99172.50
2022-09-30T20:57:13.513Z,99162.00
2022-09-30T20:59:41.376Z,99158.47
2022-09-30T21:02:09.144Z,99152.47
2022-09-30T21:04:37.616Z,99159.63
2022-09-30T21:07:07.015Z,99155.28
2022-09-30T21:09:35.580Z,99138.72
2022-09-30T21:12:03.376Z,99137.19
2022-09-30T21:14:31.032Z,99133.69
2022-09-30T21:16:59.312Z,99133.69
2022-09-30T21:19:27.093Z,99127.69
2022-09-30T21:21:56.971Z,99125.97
2022-09-30T21:24:26.056Z,99134.84
2022-09-30T21:26:54.615Z,99133.16
2022-09-30T21:29:24.263Z,99128.81
2022-09-30T21:31:52.231Z,99124.63
2022-09-30T21:34:19.870Z,99121.09
2022-09-30T21:36:49.435Z,99116.94
2022-09-30T21:39:17.235Z,99127.63
2022-09-30T21:41:45.878Z,99119.44
2022-09-30T21:44:14.107Z,99123.31
2022-09-30T21:46:46.056Z,99117.69
2022-09-30T21:49:16.349Z,99116.53
2022-09-30T21:51:44.233Z,99113.69
2022-09-30T21:54:13.751Z,99103.72
2022-09-30T21:56:41.488Z,99113.41
2022-09-30T21:59:09.323Z,99108.41
2022-09-30T22:01:37.692Z,99108.25
2022-09-30T22:04:05.516Z,99103.78
2022-09-30T22:06:33.500Z,99096.56
2022-09-30T22:09:01.723Z,99092.09
2022-09-30T22:11:29.640Z,99096.44
2022-09-30T22:13:57.759Z,99093.75
2022-09-30T22:16:27.120Z,99084.44
2022-09-30T22:18:55.491Z,99095.81
2022-09-30T22:21:23.271Z,99095.81
2022-09-30T22:23:50.940Z,99091.00
2022-09-30T22:26:18.863Z,99084.50
2022-09-30T22:28:46.955Z,99087.00
2022-09-30T22:31:15.275Z,99089.53
2022-09-30T22:34:00.768Z,99089.53
2022-09-30T22:36:45.758Z,99084.19
2022-09-30T22:39:13.519Z,99080.50
2022-09-30T22:41:41.956Z,99077.69
2022-09-30T22:44:09.552Z,99072.34
2022-09-30T22:46:37.218Z,99075.84
2022-09-30T22:49:05.291Z,99069.66
2022-09-30T22:51:33.757Z,99060.78
2022-09-30T22:54:02.230Z,99058.97
2022-09-30T22:56:29.919Z,99058.81
2022-09-30T22:58:58.235Z,99050.63
2022-09-30T23:01:25.990Z,99037.44
2022-09-30T23:03:54.380Z,99042.63
2022-09-30T23:06:23.266Z,99045.13
2022-09-30T23:08:50.853Z,99037.94
2022-09-30T23:11:18.989Z,99030.78
2022-09-30T23:13:46.806Z,99031.66
2022-09-30T23:16:14.483Z,99029.09
2022-09-30T23:18:42.306Z,99029.91
2022-09-30T23:21:09.882Z,99016.75
2022-09-30T23:23:37.588Z,99022.75
2022-09-30T23:26:05.269Z,99014.75
2022-09-30T23:28:32.847Z,99010.09
2022-09-30T23:31:01.571Z,99015.44
2022-09-30T23:33:29.165Z,99003.09
2022-09-30T23:35:56.758Z,99003.75
2022-09-30T23:38:24.488Z,99002.78
2022-09-30T23:40:52.455Z,98998.25
2022-09-30T23:43:22.787Z,99001.59
2022-09-30T23:45:50.426Z,98986.41
2022-09-30T23:48:18.200Z,98984.59
2022-09-30T23:50:49.085Z,98993.44
2022-09-30T23:53:17.202Z,98962.22
2022-09-30T23:55:45.099Z,98977.41
2022-09-30T23:58:12.627Z,98966.69
